Time;durP1;ratioP1;P1;durP2;ratioP2;P2;SDS_P1;SDS_P2;PMS_P1;PMS_P2;Temp;Humidity;BMP_temperature;BMP_pressure;BME280_temperature;BME280_humidity;BME280_pressure;Samples;Min_cycle;Max_cycle;Signal;HPM_P1;HPM_P2
2023/08/08 00:00:32;;;;;;;4.25;1.80;;;16.30;91.00;;;;;;5038065;28;20454;-82
2023/08/08 00:03:09;;;;;;;6.85;2.05;;;16.30;91.50;;;;;;5051669;28;20044;-79
2023/08/08 00:06:17;;;;;;;4.68;1.70;;;16.20;91.40;;;;;;5042149;28;21388;-81
2023/08/08 00:09:07;;;;;;;7.97;1.90;;;16.20;91.40;;;;;;5021924;28;20056;-78
2023/08/08 00:12:01;;;;;;;4.65;1.63;;;16.20;91.30;;;;;;5035651;28;20049;-79
2023/08/08 00:14:26;;;;;;;5.72;1.90;;;16.20;91.10;;;;;;5037050;28;20068;-79
2023/08/08 00:17:48;;;;;;;7.35;1.95;;;16.20;90.80;;;;;;5023250;28;20121;-78
2023/08/08 00:20:35;;;;;;;4.93;1.63;;;16.20;90.80;;;;;;5039142;28;20101;-78
2023/08/08 00:23:04;;;;;;;5.43;1.90;;;16.20;90.90;;;;;;5020356;28;20477;-81
2023/08/08 00:25:55;;;;;;;3.40;1.80;;;16.20;90.90;;;;;;4996458;28;20053;-81
2023/08/08 00:28:30;;;;;;;6.22;1.98;;;16.20;90.90;;;;;;4981201;28;20108;-80
2023/08/08 00:31:17;;;;;;;10.77;2.53;;;16.50;91.30;;;;;;4976516;28;20131;-81
2023/08/08 00:34:19;;;;;;;4.55;1.70;;;16.20;91.20;;;;;;4995244;28;20049;-79
2023/08/08 00:40:50;;;;;;;8.52;1.85;;;16.20;91.60;;;;;;4994511;28;20060;-79
2023/08/08 00:43:59;;;;;;;6.10;1.50;;;16.20;91.60;;;;;;4979988;28;20164;-80
2023/08/08 00:46:27;;;;;;;6.32;2.10;;;16.20;91.40;;;;;;4977879;28;20137;-81
2023/08/08 00:49:24;;;;;;;5.82;1.70;;;16.20;91.40;;;;;;4977444;28;20058;-80
2023/08/08 00:51:50;;;;;;;7.85;1.90;;;16.20;91.30;;;;;;4994538;28;20054;-79
2023/08/08 00:59:11;;;;;;;6.10;1.70;;;16.20;90.90;;;;;;4961025;28;20082;-81
2023/08/08 01:01:57;;;;;;;6.03;1.50;;;16.20;90.60;;;;;;4974794;28;20054;-80
2023/08/08 01:04:48;;;;;;;6.50;1.60;;;16.30;90.30;;;;;;4927860;28;20057;-79
2023/08/08 01:11:08;;;;;;;7.78;1.55;;;16.20;89.80;;;;;;5035326;28;20135;-80
2023/08/08 01:14:02;;;;;;;5.30;2.65;;;16.20;89.40;;;;;;5054782;28;20071;-80
2023/08/08 01:16:48;;;;;;;6.00;1.33;;;16.20;88.80;;;;;;5019840;28;20056;-79
2023/08/08 01:19:30;;;;;;;4.35;1.35;;;16.20;88.10;;;;;;5035216;28;20036;-78
2023/08/08 01:22:06;;;;;;;3.45;1.70;;;16.20;88.00;;;;;;5034748;28;20110;-77
2023/08/08 01:25:36;;;;;;;4.05;1.80;;;16.20;88.00;;;;;;5032655;28;20663;-78
2023/08/08 01:28:22;;;;;;;6.15;1.48;;;16.10;87.80;;;;;;5020391;28;20583;-78
2023/08/08 01:31:19;;;;;;;4.57;1.55;;;16.10;88.00;;;;;;5023735;28;20250;-77
2023/08/08 01:33:45;;;;;;;6.53;1.50;;;16.10;87.70;;;;;;5054108;28;20411;-77
2023/08/08 01:36:57;;;;;;;6.18;1.63;;;16.10;88.30;;;;;;5036185;28;20060;-79
2023/08/08 01:39:53;;;;;;;5.50;1.70;;;16.00;88.50;;;;;;5039256;28;20045;-77
2023/08/08 01:42:49;;;;;;;4.68;1.40;;;16.10;89.00;;;;;;5051783;28;20045;-77
2023/08/08 01:45:35;;;;;;;4.30;1.50;;;16.10;88.60;;;;;;5052886;28;20518;-77
2023/08/08 01:48:16;;;;;;;8.75;1.60;;;16.10;88.40;;;;;;5039178;28;20125;-79
2023/08/08 01:51:03;;;;;;;3.67;1.40;;;16.10;88.80;;;;;;5051176;28;20067;-79
2023/08/08 01:54:11;;;;;;;5.13;1.45;;;16.00;89.00;;;;;;5051815;28;20924;-77
2023/08/08 01:56:59;;;;;;;4.60;1.55;;;16.10;89.90;;;;;;5024573;28;20452;-78
2023/08/08 02:00:04;;;;;;;6.40;1.60;;;16.00;90.00;;;;;;5039658;28;20048;-79
2023/08/08 02:02:49;;;;;;;4.80;2.03;;;16.00;89.40;;;;;;5036552;28;20049;-78
2023/08/08 02:05:35;;;;;;;5.97;1.80;;;16.00;89.10;;;;;;5051907;28;21349;-79
2023/08/08 02:08:21;;;;;;;3.78;1.67;;;16.00;89.20;;;;;;5050092;28;20048;-77
2023/08/08 02:11:15;;;;;;;3.72;1.80;;;16.00;89.50;;;;;;5020168;28;20056;-79
2023/08/08 02:14:00;;;;;;;4.80;1.65;;;16.00;89.90;;;;;;5039326;28;20040;-79
2023/08/08 02:16:47;;;;;;;5.10;1.55;;;16.00;89.80;;;;;;5030552;28;20053;-77
2023/08/08 02:19:35;;;;;;;6.80;1.77;;;15.90;89.60;;;;;;5050123;28;20048;-79
2023/08/08 02:22:56;;;;;;;4.00;1.52;;;15.90;89.30;;;;;;5035759;28;20056;-80
2023/08/08 02:25:56;;;;;;;5.70;1.80;;;15.90;89.30;;;;;;5028621;28;20135;-78
2023/08/08 02:28:38;;;;;;;6.90;1.80;;;15.90;89.10;;;;;;5051626;28;20044;-77
2023/08/08 02:31:39;;;;;;;7.15;1.63;;;15.90;89.20;;;;;;5021340;28;20798;-79
2023/08/08 02:34:28;;;;;;;5.70;1.60;;;15.90;90.10;;;;;;5036931;28;20041;-78
2023/08/08 02:37:20;;;;;;;4.50;1.30;;;15.90;90.00;;;;;;5035607;28;20090;-78
2023/08/08 02:40:15;;;;;;;3.65;1.23;;;15.90;89.90;;;;;;5034593;28;20118;-78
2023/08/08 02:43:10;;;;;;;4.78;1.23;;;15.80;89.90;;;;;;5067455;28;20044;-80
2023/08/08 02:46:26;;;;;;;4.43;1.45;;;15.80;90.00;;;;;;5050065;28;20035;-78
2023/08/08 02:49:20;;;;;;;;;;;15.80;90.00;;;;;;5032019;28;20037;-78
2023/08/08 02:52:17;;;;;;;4.53;1.20;;;15.70;89.00;;;;;;5052543;28;19924;-79
2023/08/08 02:55:40;;;;;;;5.43;1.20;;;15.70;87.60;;;;;;5030727;28;20067;-81
2023/08/08 02:58:30;;;;;;;3.75;1.13;;;15.70;85.10;;;;;;5049263;28;20657;-78
2023/08/08 03:01:39;;;;;;;3.22;1.20;;;15.70;85.60;;;;;;5050704;28;20056;-78
2023/08/08 03:04:43;;;;;;;7.05;1.70;;;15.70;86.30;;;;;;5052312;28;20055;-79
2023/08/08 03:07:10;;;;;;;4.18;1.27;;;15.70;86.90;;;;;;5032321;28;20057;-78
2023/08/08 03:10:01;;;;;;;3.85;1.40;;;15.70;87.30;;;;;;5033244;28;20752;-80
2023/08/08 03:12:47;;;;;;;4.32;1.15;;;15.70;86.50;;;;;;5032204;28;20051;-80
2023/08/08 03:15:41;;;;;;;3.03;1.30;;;15.70;85.80;;;;;;5034133;28;20048;-78
2023/08/08 03:18:37;;;;;;;3.55;1.10;;;15.70;85.90;;;;;;5029996;28;20060;-78
2023/08/08 03:21:38;;;;;;;3.88;1.15;;;15.70;85.80;;;;;;5017924;28;20045;-77
2023/08/08 03:24:25;;;;;;;2.90;1.13;;;15.60;85.00;;;;;;5037364;28;20052;-79
2023/08/08 03:30:28;;;;;;;4.95;1.20;;;15.60;84.70;;;;;;5050076;28;20126;-77
2023/08/08 03:33:14;;;;;;;4.20;1.67;;;15.50;84.70;;;;;;5022650;28;20970;-80
2023/08/08 03:36:06;;;;;;;6.43;1.30;;;15.50;84.60;;;;;;5023401;28;20050;-79
2023/08/08 03:38:56;;;;;;;3.38;1.10;;;15.50;84.30;;;;;;5022173;28;20623;-77
2023/08/08 03:41:22;;;;;;;4.28;1.20;;;15.50;84.30;;;;;;5039698;28;20049;-78
2023/08/08 03:47:00;;;;;;;3.45;1.75;;;15.50;84.40;;;;;;5052127;28;20052;-77
2023/08/08 03:49:45;;;;;;;4.20;1.40;;;15.50;83.80;;;;;;5019703;28;20048;-76
2023/08/08 03:52:11;;;;;;;5.95;1.30;;;15.50;84.00;;;;;;5051962;28;20468;-79
2023/08/08 03:54:57;;;;;;;4.65;1.02;;;15.50;84.30;;;;;;5035377;28;20530;-78
2023/08/08 03:57:48;;;;;;;4.43;1.20;;;15.60;84.60;;;;;;5018990;28;20151;-80
2023/08/08 04:00:34;;;;;;;7.45;1.48;;;15.60;85.00;;;;;;5053091;28;20048;-79
2023/08/08 04:03:00;;;;;;;6.90;1.50;;;15.60;86.00;;;;;;5021807;28;20048;-79
2023/08/08 04:05:46;;;;;;;5.18;1.52;;;15.60;86.70;;;;;;5036882;28;20048;-77
2023/08/08 04:08:49;;;;;;;4.80;1.45;;;15.60;88.70;;;;;;5020777;28;20064;-78
2023/08/08 04:11:41;;;;;;;6.15;1.77;;;15.60;88.40;;;;;;5037436;28;20167;-79
2023/08/08 04:14:27;;;;;;;8.73;1.52;;;15.60;88.60;;;;;;5037132;28;20056;-78
2023/08/08 04:16:53;;;;;;;6.35;1.85;;;15.60;88.50;;;;;;5020779;28;20466;-77
2023/08/08 04:19:19;;;;;;;4.72;1.20;;;15.60;88.70;;;;;;5034711;28;20048;-77
2023/08/08 04:21:47;;;;;;;4.82;1.33;;;15.60;88.70;;;;;;5023310;28;20047;-78
2023/08/08 04:24:12;;;;;;;4.25;1.65;;;15.60;88.70;;;;;;5055023;28;20090;-78
2023/08/08 04:26:58;;;;;;;12.65;1.63;;;15.50;88.90;;;;;;5024107;28;20051;-77
2023/08/08 04:29:44;;;;;;;8.70;1.60;;;15.50;89.40;;;;;;5054863;28;20036;-79
2023/08/08 04:32:42;;;;;;;4.85;1.60;;;15.50;90.00;;;;;;5037409;28;20056;-78
2023/08/08 04:35:50;;;;;;;8.70;2.50;;;15.50;90.00;;;;;;5054628;28;20094;-77
2023/08/08 04:38:34;;;;;;;4.90;1.35;;;15.50;89.60;;;;;;5005007;28;20137;-77
2023/08/08 04:41:16;;;;;;;4.60;1.38;;;15.50;88.70;;;;;;5036742;28;20518;-77
2023/08/08 04:44:02;;;;;;;6.25;1.40;;;15.50;88.50;;;;;;5022628;28;20139;-78
2023/08/08 04:46:48;;;;;;;5.82;1.50;;;15.50;88.30;;;;;;5039109;28;21779;-79
2023/08/08 04:49:55;;;;;;;6.20;1.35;;;15.50;88.70;;;;;;5040137;28;20049;-77
2023/08/08 04:52:36;;;;;;;4.82;1.23;;;15.50;88.90;;;;;;5021261;28;20118;-80
2023/08/08 04:55:21;;;;;;;5.70;1.23;;;15.50;89.00;;;;;;4995377;28;20113;-79
2023/08/08 04:58:08;;;;;;;8.32;1.55;;;15.50;89.40;;;;;;4971077;28;20089;-78
2023/08/08 05:00:35;;;;;;;7.60;1.70;;;15.50;89.40;;;;;;4977319;28;20132;-76
2023/08/08 05:03:08;;;;;;;6.57;1.50;;;15.50;90.10;;;;;;4976755;28;20630;-75
2023/08/08 05:05:34;;;;;;;5.45;1.60;;;15.50;90.20;;;;;;4973164;28;20256;-77
2023/08/08 05:08:00;;;;;;;5.28;1.30;;;15.50;90.20;;;;;;4973503;28;20042;-78
2023/08/08 05:10:25;;;;;;;6.85;1.33;;;15.50;90.20;;;;;;4960382;28;20615;-78
2023/08/08 05:12:51;;;;;;;4.53;1.30;;;15.60;90.20;;;;;;4974448;28;20045;-76
2023/08/08 05:15:17;;;;;;;4.78;1.40;;;15.60;90.00;;;;;;4976372;28;20844;-79
2023/08/08 05:17:43;;;;;;;6.63;1.40;;;15.60;89.80;;;;;;4974355;28;20050;-78
2023/08/08 05:20:09;;;;;;;5.28;1.27;;;15.60;89.90;;;;;;4976482;28;20069;-77
2023/08/08 05:22:35;;;;;;;5.88;1.55;;;15.60;90.00;;;;;;4977362;28;20050;-79
2023/08/08 05:25:01;;;;;;;7.25;1.33;;;15.70;90.00;;;;;;4966614;28;20053;-76
2023/08/08 05:27:27;;;;;;;6.15;1.35;;;15.60;90.00;;;;;;5065592;28;20048;-76
2023/08/08 05:29:53;;;;;;;7.55;1.55;;;15.70;90.30;;;;;;5006451;28;20594;-77
2023/08/08 05:32:27;;;;;;;9.98;1.60;;;15.70;90.20;;;;;;5051467;28;20106;-77
2023/08/08 05:34:53;;;;;;;4.82;1.40;;;15.70;90.30;;;;;;5023039;28;20052;-76
2023/08/08 05:37:19;;;;;;;5.40;1.45;;;15.70;90.50;;;;;;5017579;28;20127;-76
2023/08/08 05:39:45;;;;;;;6.32;1.38;;;15.70;90.70;;;;;;5052473;28;20044;-75
2023/08/08 05:42:11;;;;;;;6.30;1.38;;;15.80;91.00;;;;;;5039304;28;20053;-76
2023/08/08 05:44:36;;;;;;;6.07;1.23;;;15.80;91.20;;;;;;5022914;28;20052;-77
2023/08/08 05:47:02;;;;;;;4.80;1.30;;;15.80;91.10;;;;;;5036246;28;20586;-76
2023/08/08 05:49:28;;;;;;;7.72;1.58;;;15.80;91.20;;;;;;5024121;28;20849;-76
2023/08/08 05:51:54;;;;;;;8.25;1.50;;;15.80;91.20;;;;;;5005495;28;20139;-76
2023/08/08 05:54:20;;;;;;;8.18;1.77;;;15.90;91.20;;;;;;5007613;28;20127;-77
2023/08/08 05:56:46;;;;;;;5.60;1.35;;;15.90;91.20;;;;;;5068570;28;20048;-76
2023/08/08 05:59:12;;;;;;;4.35;1.30;;;15.90;91.10;;;;;;5054236;28;20159;-76
2023/08/08 06:01:37;;;;;;;5.90;1.30;;;15.90;90.50;;;;;;5036569;28;20047;-76
2023/08/08 06:04:03;;;;;;;6.80;1.20;;;16.00;90.10;;;;;;5035992;28;20049;-76
2023/08/08 06:06:29;;;;;;;7.50;1.67;;;16.00;89.80;;;;;;5068504;28;20046;-75
2023/08/08 06:08:56;;;;;;;6.45;1.40;;;16.10;89.80;;;;;;5013416;28;20383;-77
2023/08/08 06:11:22;;;;;;;4.60;1.30;;;16.20;90.10;;;;;;5019245;28;20174;-75
2023/08/08 06:13:49;;;;;;;6.05;1.42;;;16.20;90.00;;;;;;5018701;28;20045;-76
2023/08/08 06:16:15;;;;;;;7.63;1.42;;;16.20;90.20;;;;;;5030990;28;20159;-76
2023/08/08 06:18:41;;;;;;;6.88;1.60;;;16.20;90.50;;;;;;5003332;28;20152;-77
2023/08/08 06:21:07;;;;;;;6.35;1.50;;;16.20;90.70;;;;;;5013703;28;20476;-78
2023/08/08 06:23:33;;;;;;;6.72;1.50;;;16.20;90.80;;;;;;5016496;28;20041;-76
2023/08/08 06:25:59;;;;;;;5.38;1.38;;;16.40;90.60;;;;;;5030360;28;20408;-79
2023/08/08 06:28:25;;;;;;;6.88;1.60;;;16.50;90.30;;;;;;5030368;28;20045;-78
2023/08/08 06:30:50;;;;;;;7.70;1.58;;;16.60;90.30;;;;;;5017962;28;20072;-78
2023/08/08 06:33:16;;;;;;;8.70;2.55;;;16.70;90.30;;;;;;5034279;28;20045;-77
2023/08/08 06:35:42;;;;;;;5.93;1.40;;;16.70;90.80;;;;;;5034676;28;20052;-83
2023/08/08 06:38:08;;;;;;;4.82;1.60;;;16.70;90.30;;;;;;5032014;28;20052;-82
2023/08/08 06:40:34;;;;;;;7.18;1.52;;;16.60;89.80;;;;;;5018337;28;20049;-80
2023/08/08 06:43:01;;;;;;;9.02;1.90;;;16.60;89.20;;;;;;5033378;28;20399;-81
2023/08/08 06:45:27;;;;;;;6.63;1.45;;;16.60;89.60;;;;;;5031658;28;20037;-78
2023/08/08 06:47:52;;;;;;;4.40;1.15;;;16.60;89.40;;;;;;5033355;28;20483;-82
2023/08/08 06:50:18;;;;;;;4.03;1.48;;;16.50;89.40;;;;;;5019396;28;20059;-77
2023/08/08 06:52:44;;;;;;;5.80;1.50;;;16.50;89.50;;;;;;5052989;28;20043;-77
2023/08/08 06:55:10;;;;;;;6.18;1.33;;;16.50;88.70;;;;;;5021513;28;20056;-78
2023/08/08 06:57:35;;;;;;;8.80;1.60;;;16.50;88.10;;;;;;5019865;28;20112;-79
2023/08/08 07:00:04;;;;;;;8.07;1.58;;;16.50;88.00;;;;;;5022989;28;20123;-76
2023/08/08 07:02:30;;;;;;;4.82;1.38;;;16.50;87.90;;;;;;5032967;28;20060;-77
2023/08/08 07:04:56;;;;;;;6.20;1.40;;;16.50;86.30;;;;;;5007038;28;20592;-77
2023/08/08 07:07:22;;;;;;;6.90;1.35;;;16.60;85.40;;;;;;5027597;28;20041;-76
2023/08/08 07:09:48;;;;;;;5.45;1.63;;;16.60;84.80;;;;;;5051168;28;20063;-75
2023/08/08 07:12:14;;;;;;;7.07;1.50;;;16.70;85.90;;;;;;5035848;28;20131;-76
2023/08/08 07:14:40;;;;;;;9.30;1.70;;;16.70;87.40;;;;;;5057020;28;20043;-75
2023/08/08 07:17:05;;;;;;;8.30;1.42;;;16.70;88.50;;;;;;5041434;28;20044;-76
2023/08/08 07:19:31;;;;;;;8.13;1.73;;;16.70;88.80;;;;;;5073928;28;20048;-77
2023/08/08 07:21:57;;;;;;;6.75;1.40;;;16.70;89.10;;;;;;5037011;28;20574;-76
2023/08/08 07:24:26;;;;;;;6.00;1.50;;;16.70;89.00;;;;;;5021955;28;20114;-76
2023/08/08 07:26:52;;;;;;;6.93;1.30;;;16.70;89.10;;;;;;5040122;28;20045;-76
2023/08/08 07:29:17;;;;;;;7.07;1.52;;;16.60;90.00;;;;;;5041724;28;20051;-74
2023/08/08 07:32:04;;;;;;;9.35;1.60;;;16.50;90.20;;;;;;5026805;28;20049;-78
2023/08/08 07:34:32;;;;;;;11.38;1.90;;;16.40;91.30;;;;;;5021658;28;20048;-77
2023/08/08 07:37:04;;;;;;;5.55;1.65;;;16.30;92.20;;;;;;5053336;28;20123;-78
2023/08/08 07:39:30;;;;;;;5.82;1.20;;;16.20;93.00;;;;;;5039856;28;20117;-78
2023/08/08 07:41:55;;;;;;;8.23;2.20;;;16.30;93.00;;;;;;5021369;28;20049;-77
2023/08/08 07:44:21;;;;;;;5.97;1.35;;;16.40;92.90;;;;;;5024758;28;20055;-78
2023/08/08 07:46:47;;;;;;;8.40;1.80;;;16.50;92.70;;;;;;5042011;28;20075;-79
2023/08/08 07:49:13;;;;;;;14.48;1.65;;;16.50;92.30;;;;;;5043328;28;20052;-78
2023/08/08 07:51:39;;;;;;;6.82;1.50;;;16.50;92.00;;;;;;5072369;28;20040;-78
2023/08/08 07:54:08;;;;;;;8.15;1.35;;;16.50;91.40;;;;;;5008800;28;20052;-78
2023/08/08 07:56:36;;;;;;;4.40;1.75;;;16.60;91.10;;;;;;5024834;28;20041;-78
2023/08/08 07:59:14;;;;;;;6.20;1.52;;;16.70;90.50;;;;;;5025641;28;20569;-78
2023/08/08 08:01:48;;;;;;;5.70;1.40;;;16.70;89.90;;;;;;5057245;28;20047;-80
2023/08/08 08:04:15;;;;;;;5.95;1.23;;;16.70;88.90;;;;;;5039462;28;20041;-81
2023/08/08 08:06:40;;;;;;;5.15;1.20;;;16.80;88.00;;;;;;5039194;28;20041;-80
2023/08/08 08:09:06;;;;;;;5.32;1.30;;;16.80;86.70;;;;;;5051229;28;20055;-79
2023/08/08 08:11:32;;;;;;;4.97;1.30;;;16.80;86.50;;;;;;5038089;28;20044;-80
2023/08/08 08:13:57;;;;;;;4.40;1.27;;;16.90;87.10;;;;;;5038205;28;20398;-81
2023/08/08 08:16:23;;;;;;;5.63;1.20;;;16.90;87.80;;;;;;5038532;28;20596;-80
2023/08/08 08:18:49;;;;;;;9.77;1.40;;;16.90;88.10;;;;;;5023410;28;20056;-79
2023/08/08 08:21:17;;;;;;;6.13;1.25;;;17.00;88.50;;;;;;5027250;28;20556;-76
2023/08/08 08:23:45;;;;;;;8.02;1.58;;;17.00;88.30;;;;;;5044443;28;20160;-79
2023/08/08 08:26:12;;;;;;;5.88;1.40;;;17.00;88.80;;;;;;5038082;28;20048;-79
2023/08/08 08:28:44;;;;;;;6.22;1.85;;;16.90;89.40;;;;;;5056902;28;20087;-77
2023/08/08 08:31:13;;;;;;;6.40;1.50;;;17.10;89.00;;;;;;5043894;28;20074;-77
2023/08/08 08:33:40;;;;;;;6.07;1.42;;;17.20;88.40;;;;;;5042233;28;20522;-79
2023/08/08 08:36:20;;;;;;;6.15;1.35;;;17.30;88.20;;;;;;5054790;28;20048;-77
2023/08/08 08:39:54;;;;;;;4.15;1.50;;;17.20;88.20;;;;;;5031399;28;20452;-78
2023/08/08 08:42:33;;;;;;;9.05;1.45;;;17.70;86.50;;;;;;5045691;28;20145;-78
2023/08/08 08:45:54;;;;;;;9.38;1.80;;;17.20;86.30;;;;;;5052945;28;20242;-79
2023/08/08 08:48:44;;;;;;;9.05;1.75;;;17.40;86.80;;;;;;5036038;28;20053;-77
2023/08/08 08:51:29;;;;;;;5.43;1.55;;;17.70;83.20;;;;;;5036874;28;20040;-78
2023/08/08 08:54:19;;;;;;;5.13;1.60;;;18.00;81.70;;;;;;5056242;28;20037;-77
2023/08/08 08:57:05;;;;;;;4.82;1.38;;;18.10;80.30;;;;;;5055791;28;20042;-78
2023/08/08 09:00:00;;;;;;;7.60;1.23;;;18.10;79.30;;;;;;5051040;28;20053;-78
2023/08/08 09:03:02;;;;;;;7.07;1.38;;;18.40;77.50;;;;;;5038808;28;20132;-77
2023/08/08 09:06:18;;;;;;;6.68;1.58;;;18.70;72.00;;;;;;5055363;28;20441;-79
2023/08/08 09:09:05;;;;;;;4.40;1.27;;;18.60;71.20;;;;;;5064687;28;20711;-79
2023/08/08 09:15:10;;;;;;;4.28;1.20;;;18.30;71.50;;;;;;5023093;28;20502;-80
2023/08/08 09:17:55;;;;;;;8.73;1.70;;;18.40;71.30;;;;;;5053213;28;20060;-74
2023/08/08 09:20:28;;;;;;;6.40;1.70;;;18.60;71.30;;;;;;5055040;28;20040;-76
2023/08/08 09:22:55;;;;;;;9.70;1.85;;;18.90;68.00;;;;;;5024114;28;20455;-75
2023/08/08 09:25:27;;;;;;;5.50;1.80;;;19.20;64.90;;;;;;5055196;28;20133;-75
2023/08/08 09:27:55;;;;;;;7.45;1.73;;;19.10;64.00;;;;;;5023192;28;20056;-75
2023/08/08 09:30:21;;;;;;;8.73;1.58;;;19.00;65.20;;;;;;5035047;28;20040;-75
2023/08/08 09:33:00;;;;;;;6.97;1.58;;;19.30;66.50;;;;;;5039458;28;20105;-75
2023/08/08 09:35:29;;;;;;;6.50;1.92;;;19.40;64.90;;;;;;5023878;28;20407;-75
2023/08/08 09:37:57;;;;;;;5.70;1.60;;;19.40;60.50;;;;;;5017892;28;20425;-76
2023/08/08 09:40:39;;;;;;;7.40;1.55;;;19.40;56.50;;;;;;5052001;28;20384;-75
2023/08/08 09:43:08;;;;;;;5.63;1.52;;;19.20;55.80;;;;;;5033588;28;20045;-77
2023/08/08 09:45:44;;;;;;;6.82;1.50;;;19.20;55.00;;;;;;5023689;28;20044;-75
2023/08/08 09:48:10;;;;;;;5.20;1.60;;;19.10;46.40;;;;;;5051722;28;20054;-77
2023/08/08 09:50:36;;;;;;;8.65;1.67;;;19.20;43.10;;;;;;5032539;28;20041;-77
2023/08/08 09:53:03;;;;;;;4.75;1.42;;;19.40;42.60;;;;;;5050110;28;20475;-78
2023/08/08 09:55:30;;;;;;;6.35;1.45;;;19.60;40.70;;;;;;5037242;28;20392;-77
2023/08/08 09:57:58;;;;;;;5.22;1.33;;;19.90;39.50;;;;;;5050009;28;20407;-76
2023/08/08 10:00:27;;;;;;;4.78;1.60;;;20.10;36.20;;;;;;5019207;28;20040;-79
2023/08/08 10:02:58;;;;;;;4.97;1.48;;;20.10;31.80;;;;;;5052273;28;20041;-75
2023/08/08 10:05:26;;;;;;;4.70;1.30;;;20.40;31.50;;;;;;5067037;28;20052;-81
2023/08/08 10:07:54;;;;;;;3.65;1.40;;;20.40;28.40;;;;;;5019793;28;20048;-76
2023/08/08 10:10:20;;;;;;;6.85;1.67;;;20.40;25.00;;;;;;5035571;28;20049;-76
2023/08/08 10:12:47;;;;;;;6.22;1.50;;;20.40;24.00;;;;;;5031444;28;20048;-77
2023/08/08 10:15:13;;;;;;;4.55;1.17;;;20.10;27.50;;;;;;5014964;28;20103;-77
2023/08/08 10:17:40;;;;;;;6.60;1.58;;;20.10;30.20;;;;;;5015365;28;20053;-78
2023/08/08 10:20:11;;;;;;;6.57;1.70;;;20.20;31.80;;;;;;5018825;28;20052;-77
2023/08/08 10:22:46;;;;;;;11.50;2.22;;;20.00;33.10;;;;;;5053030;28;20738;-77
2023/08/08 10:25:45;;;;;;;7.72;1.52;;;19.90;36.20;;;;;;5022676;28;20053;-78
2023/08/08 10:28:23;;;;;;;6.78;1.15;;;20.30;34.20;;;;;;5037700;28;20053;-79
2023/08/08 10:31:16;;;;;;;6.30;1.42;;;20.60;26.70;;;;;;5057313;28;20044;-76
2023/08/08 10:33:45;;;;;;;6.35;1.38;;;20.60;13.20;;;;;;5025355;28;20084;-77
2023/08/08 10:36:26;;;;;;;6.78;1.75;;;20.80;16.00;;;;;;5050869;28;20064;-75
2023/08/08 10:39:36;;;;;;;6.07;1.20;;;20.60;12.90;;;;;;4969130;28;20051;-75
2023/08/08 10:42:20;;;;;;;6.82;1.40;;;20.70;10.50;;;;;;5060422;28;20482;-78
2023/08/08 10:44:58;;;;;;;4.97;1.33;;;20.70;2.10;;;;;;5031135;28;20703;-77
2023/08/08 10:47:32;;;;;;;6.70;1.23;;;20.80;1.40;;;;;;5044169;28;20075;-76
2023/08/08 10:50:06;;;;;;;6.10;1.50;;;20.60;1.00;;;;;;5028784;28;20114;-78
2023/08/08 10:52:35;;;;;;;4.72;1.52;;;20.50;3.30;;;;;;5080091;28;20052;-75
2023/08/08 10:55:02;;;;;;;5.18;1.67;;;20.60;8.30;;;;;;5048737;28;20052;-75
2023/08/08 10:57:28;;;;;;;5.70;1.27;;;20.70;1.00;;;;;;5031031;28;20061;-75
2023/08/08 10:59:54;;;;;;;5.15;1.45;;;20.80;1.00;;;;;;5028790;28;20089;-76
2023/08/08 11:02:22;;;;;;;4.68;1.20;;;20.90;1.00;;;;;;5045966;28;20060;-76
2023/08/08 11:04:50;;;;;;;6.63;1.35;;;21.10;1.00;;;;;;5028725;28;20051;-76
2023/08/08 11:07:16;;;;;;;5.88;1.42;;;21.00;1.00;;;;;;5024813;28;20494;-77
2023/08/08 11:09:49;;;;;;;5.00;1.60;;;20.90;1.00;;;;;;5042633;28;20037;-77
2023/08/08 11:12:15;;;;;;;4.75;1.40;;;20.80;1.00;;;;;;5042069;28;20048;-76
2023/08/08 11:14:42;;;;;;;5.38;1.60;;;20.90;1.00;;;;;;5007893;28;20628;-78
2023/08/08 11:17:07;;;;;;;4.47;1.42;;;20.90;1.00;;;;;;5041433;28;20075;-75
2023/08/08 11:19:40;;;;;;;4.90;1.40;;;21.00;1.90;;;;;;5029363;28;20041;-76
2023/08/08 11:22:11;;;;;;;7.60;1.55;;;20.90;1.00;;;;;;5030250;28;20173;-76
2023/08/08 11:24:37;;;;;;;5.72;1.30;;;21.00;1.00;;;;;;5047596;28;20597;-76
2023/08/08 11:27:03;;;;;;;7.30;1.45;;;21.00;1.00;;;;;;5049772;28;20395;-76
2023/08/08 11:29:40;;;;;;;6.60;1.45;;;21.10;1.00;;;;;;5048813;28;20058;-76
2023/08/08 11:32:09;;;;;;;5.85;1.38;;;21.20;1.00;;;;;;5029302;28;21478;-76
2023/08/08 11:34:34;;;;;;;9.30;1.50;;;21.20;1.00;;;;;;5048198;28;20036;-76
2023/08/08 11:37:02;;;;;;;5.45;1.60;;;21.30;1.00;;;;;;5029015;28;20049;-76
2023/08/08 11:39:30;;;;;;;6.68;1.50;;;21.20;1.00;;;;;;5029278;28;20202;-75
2023/08/08 11:41:56;;;;;;;8.35;1.60;;;21.30;1.90;;;;;;5042953;28;20043;-77
2023/08/08 11:44:22;;;;;;;5.78;1.48;;;21.20;1.00;;;;;;5046272;28;20056;-77
2023/08/08 11:46:49;;;;;;;5.30;1.30;;;21.00;2.10;;;;;;5065047;28;20040;-76
2023/08/08 11:49:16;;;;;;;3.67;1.17;;;20.90;1.00;;;;;;5033105;28;20045;-76
2023/08/08 11:51:46;;;;;;;4.82;1.40;;;21.10;1.00;;;;;;5033814;28;20125;-77
2023/08/08 11:54:14;;;;;;;5.35;1.20;;;21.00;1.00;;;;;;5047110;28;20055;-76
2023/08/08 11:56:42;;;;;;;3.25;1.13;;;20.90;1.00;;;;;;5030051;28;20048;-76
2023/08/08 11:59:12;;;;;;;4.88;1.17;;;21.10;1.00;;;;;;5049044;28;20048;-74
2023/08/08 12:01:44;;;;;;;5.80;1.33;;;21.20;1.00;;;;;;5044686;28;20052;-76
2023/08/08 12:04:09;;;;;;;8.75;2.33;;;21.40;1.00;;;;;;5058633;28;20083;-77
2023/08/08 12:06:42;;;;;;;7.00;1.50;;;21.60;1.00;;;;;;5044890;28;20068;-76
2023/08/08 12:09:14;;;;;;;4.57;1.40;;;21.70;1.00;;;;;;5015220;28;20137;-77
2023/08/08 12:11:40;;;;;;;6.07;1.60;;;21.80;1.00;;;;;;5045944;28;20056;-76
2023/08/08 12:14:10;;;;;;;6.57;1.60;;;21.70;1.00;;;;;;5024396;28;20045;-76
2023/08/08 12:16:57;;;;;;;9.02;1.52;;;21.60;1.00;;;;;;5044651;28;20053;-79
2023/08/08 12:19:47;;;;;;;7.13;1.90;;;22.00;1.00;;;;;;5062063;28;20507;-80
2023/08/08 12:22:38;;;;;;;5.20;1.30;;;21.60;1.00;;;;;;5044553;28;20510;-79
2023/08/08 12:25:05;;;;;;;6.05;1.35;;;21.30;1.00;;;;;;5063115;28;20068;-79
2023/08/08 12:27:30;;;;;;;6.30;1.30;;;21.50;1.00;;;;;;5061120;28;20045;-79
2023/08/08 12:30:32;;;;;;;7.05;1.38;;;21.60;1.00;;;;;;5043438;28;20515;-78
2023/08/08 12:32:57;;;;;;;6.53;1.45;;;21.60;1.00;;;;;;4987883;28;20060;-78
2023/08/08 12:35:26;;;;;;;5.25;1.50;;;22.00;1.00;;;;;;5000590;28;20604;-78
2023/08/08 12:38:30;;;;;;;7.35;1.35;;;22.10;1.00;;;;;;4983901;28;20054;-78
2023/08/08 12:40:56;;;;;;;3.85;1.33;;;22.20;1.00;;;;;;4999409;28;20092;-79
2023/08/08 12:43:22;;;;;;;6.35;1.60;;;22.10;1.00;;;;;;4999338;28;20146;-78
2023/08/08 12:45:54;;;;;;;6.07;1.70;;;22.10;1.00;;;;;;4999054;28;20408;-80
2023/08/08 12:48:20;;;;;;;4.78;1.38;;;21.30;1.00;;;;;;4984297;28;20831;-79
2023/08/08 12:50:49;;;;;;;8.40;1.50;;;21.00;1.00;;;;;;4982576;28;20054;-81
2023/08/08 12:53:34;;;;;;;5.05;1.48;;;20.70;1.00;;;;;;4996750;28;20548;-80
2023/08/08 12:59:46;;;;;;;8.05;1.75;;;21.30;1.00;;;;;;4996174;28;20496;-76
2023/08/08 13:02:53;;;;;;;5.38;1.48;;;21.80;1.00;;;;;;4981205;28;20042;-76
2023/08/08 13:05:47;;;;;;;5.50;2.08;;;21.80;1.00;;;;;;5041720;28;20048;-76
2023/08/08 13:08:23;;;;;;;10.77;2.28;;;21.70;1.00;;;;;;5039310;28;20135;-76
2023/08/08 13:11:17;;;;;;;6.38;1.63;;;21.90;1.00;;;;;;5038660;28;20143;-75
2023/08/08 13:14:22;;;;;;;6.40;1.52;;;21.90;1.00;;;;;;5058945;28;20045;-75
2023/08/08 13:17:46;;;;;;;7.90;1.70;;;21.80;1.00;;;;;;4988123;28;20054;-76
2023/08/08 13:23:41;;;;;;;5.13;1.60;;;21.80;1.00;;;;;;5178350;27;20388;-74
2023/08/08 13:26:07;;;;;;;7.28;1.45;;;21.60;1.00;;;;;;5000979;28;2155705;-75
2023/08/08 13:28:33;;;;;;;5.13;1.42;;;21.60;1.00;;;;;;5073940;28;20062;-72
2023/08/08 13:31:02;;;;;;;6.35;1.20;;;21.80;1.00;;;;;;5091639;28;20050;-73
2023/08/08 13:33:28;;;;;;;8.20;1.23;;;21.80;1.00;;;;;;5079168;28;20039;-71
2023/08/08 13:35:54;;;;;;;4.97;1.40;;;22.10;1.00;;;;;;5076069;28;20208;-73
2023/08/08 13:38:20;;;;;;;5.18;1.45;;;22.30;1.00;;;;;;5067094;28;20035;-74
2023/08/08 13:40:46;;;;;;;5.35;1.30;;;22.20;1.00;;;;;;5076793;28;20048;-73
2023/08/08 13:43:12;;;;;;;3.78;1.27;;;21.90;1.00;;;;;;5063154;28;20043;-73
2023/08/08 13:45:38;;;;;;;5.95;1.25;;;21.60;1.00;;;;;;5077120;28;20054;-75
2023/08/08 13:48:03;;;;;;;5.05;1.23;;;21.70;1.00;;;;;;5086204;28;20603;-75
2023/08/08 13:50:29;;;;;;;5.95;1.42;;;21.60;1.00;;;;;;5074075;28;20124;-74
2023/08/08 13:52:55;;;;;;;5.28;1.25;;;21.60;1.00;;;;;;5078402;28;20058;-75
2023/08/08 13:55:22;;;;;;;4.85;1.20;;;21.60;1.00;;;;;;5085051;28;20116;-75
2023/08/08 13:57:47;;;;;;;5.53;1.30;;;21.60;1.00;;;;;;5088010;28;20036;-76
2023/08/08 14:00:14;;;;;;;6.88;1.38;;;21.50;1.00;;;;;;5084136;28;20387;-74
2023/08/08 14:02:40;;;;;;;5.45;1.35;;;21.50;1.00;;;;;;5072304;28;20092;-74
2023/08/08 14:05:06;;;;;;;6.95;1.33;;;21.60;1.00;;;;;;5086863;28;20044;-75
2023/08/08 14:07:33;;;;;;;6.15;1.30;;;21.50;1.00;;;;;;5088997;28;20491;-74
2023/08/08 14:09:59;;;;;;;4.68;1.20;;;21.50;1.00;;;;;;5058489;28;20051;-75